Latest Weather Observations for Tindal

IDD60801

Issued at 1:05 pm CST Friday 28 November 2014 (issued every 30 minutes, with the page automatically refreshed every 10 minutes)

About weather observations | Map of weather stations | Latest weather observations for NT | Other Formats
Station Details ID: 014932 Name: TINDAL RAAF Lat: -14.52 Lon: 132.38 Height: 133.6 m
Data from the previous 72 hours. | See also: Recent months at Tindal
Date/Time
CST
Temp
°C
App
Temp
°C
Dew
Point
Rel
Hum
%
Delta-T
°C
Wind Press
QNH
hPa
Press
MSL
hPa
Rain
since 9 am
mm
Dir
 
Spd
km/h
Gust
km/h
Spd
kts
Gust
kts
28/01:00pm 30.6 34.9 21.9 59 5.9 W 2 13 1 7 1009.5 - 0.2
28/12:30pm 29.9 34.3 22.1 63 5.3 SW 2 11 1 6 1010.0 - 0.2
28/12:00pm 29.2 33.1 22.9 69 4.3 NNW 7 13 4 7 1010.6 1009.5 0.2
28/11:30am 29.0 32.7 22.5 68 4.4 W 7 19 4 10 1011.2 - 0.2
28/11:00am 27.7 32.2 22.2 72 3.7 WNW 2 11 1 6 1011.6 - 0.2
28/10:30am 26.3 31.3 23.2 83 2.1 WNW 2 15 1 8 1011.9 - 0.0
28/10:00am 25.7 30.5 22.8 84 2.0 NW 2 17 1 9 1011.8 - 0.0
28/09:49am 25.7 29.6 23.6 88 1.4 WNW 9 17 5 9 1011.7 - 0.0
28/09:23am 25.1 29.5 23.5 91 1.1 WNW 6 15 3 8 1011.4 - 0.0
28/09:15am 24.6 28.1 22.8 90 1.2 WNW 9 15 5 8 1011.3 - 0.0
28/09:00am 24.1 27.6 22.9 93 0.8 WNW 9 15 5 8 1011.2 1010.1 48.4
28/08:30am 23.2 25.6 22.2 94 0.7 W 13 19 7 10 1011.4 - 48.2
28/08:04am 23.1 26.2 21.5 91 1.1 SW 7 11 4 6 1012.4 - 47.0
28/08:00am 23.2 26.0 21.6 91 1.1 SSW 9 11 5 6 1012.3 - 45.6
28/07:25am 23.7 25.7 22.3 92 0.9 SSW 15 20 8 11 1012.3 - 45.6
28/07:00am 24.0 27.6 23.1 95 0.6 SW 9 19 5 10 1012.2 - 45.6
28/06:33am 24.0 28.0 23.1 95 0.6 SSW 7 9 4 5 1011.8 - 45.4
28/06:30am 24.0 28.1 23.0 94 0.7 S 6 9 3 5 1011.7 - 45.4
28/06:16am 23.9 27.8 22.9 94 0.7 WSW 7 13 4 7 1011.5 - 45.4
28/06:00am 23.9 27.4 22.9 94 0.7 W 9 15 5 8 1011.0 1009.9 45.2
28/05:58am 23.9 27.4 22.9 94 0.7 W 9 15 5 8 1010.9 - 45.2
28/05:30am 24.0 27.6 23.1 95 0.6 NW 9 20 5 11 1010.0 - 44.4
28/05:27am 24.0 28.2 23.1 95 0.6 NW 6 20 3 11 1009.9 - 44.4
28/05:24am 24.0 28.9 23.1 95 0.6 NW 2 17 1 9 1009.9 - 44.2
28/05:00am 24.2 28.0 23.5 96 0.5 WNW 9 15 5 8 1009.8 - 42.4
28/04:57am 24.2 28.0 23.5 96 0.5 WNW 9 15 5 8 1009.7 - 42.2
28/04:45am 24.2 28.6 23.5 96 0.5 WNW 6 13 3 7 1009.9 - 41.6
28/04:30am 24.1 28.3 23.4 96 0.5 NW 7 15 4 8 1010.0 - 40.8
28/04:13am 24.1 27.9 23.4 96 0.5 NNW 9 15 5 8 1010.0 - 40.0
28/04:00am 24.1 28.5 23.4 96 0.5 NW 6 13 3 7 1009.8 - 37.2
28/03:47am 24.1 27.4 23.2 95 0.6 WNW 11 17 6 9 1009.9 - 35.8
28/03:30am 24.2 28.0 23.5 96 0.5 WNW 9 17 5 9 1009.6 - 35.2
28/03:00am 23.6 26.8 22.4 93 0.8 WNW 9 17 5 9 1009.2 1008.1 33.4
28/02:53am 23.9 27.1 22.3 91 1.1 WNW 9 19 5 10 1009.3 - 32.4
28/02:30am 24.4 28.8 23.5 95 0.6 NW 6 17 3 9 1009.1 - 28.4
28/02:25am 24.2 28.4 23.2 94 0.7 NNW 6 19 3 10 1009.2 - 25.6
28/02:00am 25.8 29.4 23.8 89 1.4 NNE 11 24 6 13 1008.5 - 2.4
28/01:59am 25.9 29.5 23.8 88 1.4 NNE 11 24 6 13 1008.5 - 1.6
28/01:30am 27.8 30.8 22.7 74 3.5 NNW 11 20 6 11 1008.3 - 0.0
28/01:00am 29.3 33.2 23.0 69 4.3 N 7 13 4 7 1008.8 - 0.0
28/12:30am 28.7 31.9 23.1 71 3.8 E 11 19 6 10 1009.5 - 0.0
28/12:00am 28.3 32.8 23.9 77 3.1 SE 7 9 4 5 1008.3 1007.3 0.0
 
Date/Time
CST
Temp
°C
App
Temp
°C
Dew
Point
Rel
Hum
%
Delta-T
°C
Wind Press
QNH
hPa
Press
MSL
hPa
Rain
since 9 am
mm
Dir
 
Spd
km/h
Gust
km/h
Spd
kts
Gust
kts
27/11:30pm 28.4 34.5 24.4 79 2.8 CALM 0 0 0 0 1008.6 - 0.0
27/11:00pm 28.7 34.2 23.4 73 3.7 CALM 0 0 0 0 1008.5 - 0.0
27/10:30pm 28.1 32.3 23.5 76 3.2 SSE 7 11 4 6 1008.6 - 0.0
27/10:00pm 29.3 34.6 23.0 69 4.3 CALM 0 0 0 0 1008.2 - 0.0
27/09:30pm 29.7 34.6 22.4 65 5.0 CALM 0 0 0 0 1008.2 - 0.0
27/09:00pm 29.8 34.5 23.3 68 4.5 SSE 4 6 2 3 1008.0 1007.0 0.0
27/08:30pm 29.8 34.9 23.3 68 4.5 SW 2 9 1 5 1007.7 - 0.0
27/08:00pm 30.5 33.7 22.4 62 5.5 WSW 9 11 5 6 1007.3 - 0.0
27/07:30pm 31.2 35.2 22.8 61 5.8 W 6 7 3 4 1007.1 - 0.0
27/07:00pm 31.6 35.2 22.0 56 6.6 W 6 9 3 5 1007.0 - 0.0
27/06:30pm 32.6 35.5 21.1 50 7.8 W 7 15 4 8 1006.8 - 0.0
27/06:00pm 33.1 37.6 21.6 51 7.8 CALM 0 9 0 5 1006.6 1005.6 0.0
27/05:30pm 33.5 37.9 21.3 48 8.3 CALM 0 4 0 2 1006.4 - 0.0
27/05:00pm 33.3 37.4 21.5 50 8.0 WNW 2 7 1 4 1006.4 - 0.0
27/04:30pm 33.7 37.8 21.5 49 8.3 W 2 9 1 5 1006.4 - 0.0
27/04:00pm 33.5 37.1 22.0 51 7.9 W 6 15 3 8 1006.5 - 0.0
27/03:30pm 33.6 36.8 22.4 52 7.7 W 9 15 5 8 1006.8 - 0.0
27/03:00pm 33.2 37.1 22.9 54 7.1 W 7 15 4 8 1007.3 1006.3 0.0
27/02:30pm 31.3 34.8 22.9 61 5.8 W 9 20 5 11 1007.7 - 0.0
27/02:00pm 31.9 35.8 22.6 58 6.4 NW 6 22 3 12 1008.2 - 0.0
27/01:30pm 32.9 37.5 21.7 51 7.6 CALM 0 0 0 0 1008.7 - 0.0
27/01:00pm 32.2 35.8 22.3 56 6.8 WNW 7 20 4 11 1009.2 - 0.0
27/12:30pm 32.6 35.5 21.8 53 7.4 NW 9 19 5 10 1009.5 - 0.0
27/12:00pm 32.1 35.6 22.2 56 6.8 NW 7 13 4 7 1009.9 1008.8 0.0
27/11:30am 30.7 33.5 22.3 61 5.7 WNW 11 15 6 8 1010.4 - 0.0
27/11:00am 31.0 34.2 22.3 60 5.9 WSW 9 17 5 9 1010.9 - 0.0
27/10:30am 29.8 33.1 22.5 65 5.0 WNW 9 17 5 9 1011.2 - 0.0
27/10:00am 29.3 33.4 23.0 69 4.3 NW 6 11 3 6 1011.4 - 0.0
27/09:30am 28.6 32.6 23.1 72 3.8 NNW 7 9 4 5 1011.3 - 0.0
27/09:00am 27.1 31.5 23.8 82 2.3 NW 7 11 4 6 1011.4 1010.3 2.8
27/08:30am 26.7 31.1 24.4 87 1.6 WNW 9 11 5 6 1011.2 - 2.8
27/08:00am 26.0 30.2 23.5 86 1.7 W 7 11 4 6 1011.0 - 2.8
27/07:30am 25.4 29.4 23.8 91 1.1 W 9 11 5 6 1010.8 - 2.8
27/07:00am 25.2 29.5 23.3 89 1.3 NW 6 9 3 5 1010.4 - 2.8
27/06:30am 24.8 30.3 23.4 92 1.0 CALM 0 0 0 0 1010.0 - 2.8
27/06:00am 24.7 28.9 23.5 93 0.8 ENE 7 9 4 5 1009.6 1008.5 2.8
27/05:30am 24.6 28.4 23.4 93 0.8 SW 9 9 5 5 1009.8 - 2.6
27/05:00am 24.8 30.1 23.0 90 1.2 CALM 0 0 0 0 1009.4 - 2.2
27/04:30am 24.7 30.1 23.3 92 1.0 CALM 0 0 0 0 1008.9 - 1.8
27/04:00am 24.6 28.7 23.2 92 1.0 NE 7 9 4 5 1008.8 - 1.6
27/03:30am 24.7 28.3 23.1 91 1.1 NE 9 13 5 7 1008.8 - 1.0
27/03:00am 24.9 30.2 23.0 89 1.3 CALM 0 0 0 0 1009.0 1007.9 0.8
27/02:30am 24.9 28.9 22.8 88 1.4 NE 6 7 3 4 1008.7 - 0.4
27/02:00am 24.8 28.3 22.9 89 1.3 N 9 13 5 7 1008.7 - 0.4
27/01:30am 24.5 26.2 22.4 88 1.4 NE 17 20 9 11 1008.6 - 0.4
27/01:00am 24.4 25.7 22.3 88 1.4 NE 19 30 10 16 1008.9 - 0.4
27/12:30am 24.1 25.0 22.0 88 1.4 NE 20 33 11 18 1009.8 - 0.2
27/12:00am 26.4 27.9 21.2 73 3.5 ENE 15 26 8 14 1010.3 1009.2 0.0
 
Date/Time
CST
Temp
°C
App
Temp
°C
Dew
Point
Rel
Hum
%
Delta-T
°C
Wind Press
QNH
hPa
Press
MSL
hPa
Rain
since 9 am
mm
Dir
 
Spd
km/h
Gust
km/h
Spd
kts
Gust
kts
26/11:30pm 27.1 27.8 21.6 72 3.7 E 20 32 11 17 1010.0 - 0.0
26/11:00pm 27.8 28.3 20.9 66 4.6 E 19 39 10 21 1010.0 - 0.0
26/10:30pm 28.5 28.3 20.5 62 5.3 E 22 43 12 23 1009.6 - 0.0
26/10:19pm 29.3 27.9 20.5 59 5.8 E 28 48 15 26 1009.2 - 0.0
26/10:00pm 29.9 32.9 19.3 53 6.9 SE 2 13 1 7 1008.5 - 0.0
26/09:30pm 29.3 33.1 20.2 58 6.0 CALM 0 0 0 0 1007.9 - 0.0
26/09:00pm 29.8 33.6 20.1 56 6.4 CALM 0 0 0 0 1007.8 1006.8 0.0
26/08:30pm 30.1 33.7 19.8 54 6.8 CALM 0 0 0 0 1007.4 - 0.0
26/08:00pm 29.9 33.7 20.2 56 6.4 CALM 0 0 0 0 1006.9 - 0.0
26/07:30pm 30.3 34.0 19.9 53 6.9 CALM 0 2 0 1 1006.7 - 0.0
26/07:00pm 31.1 34.3 19.8 51 7.5 SSE 2 13 1 7 1006.0 - 0.0
26/06:30pm 33.5 36.3 18.0 39 10.1 CALM 0 0 0 0 1005.9 - 0.0
26/06:00pm 34.7 37.1 17.0 35 11.4 CALM 0 2 0 1 1005.5 1004.4 0.0
26/05:30pm 35.5 38.0 17.2 33 11.8 CALM 0 6 0 3 1005.2 - 0.0
26/05:00pm 35.5 38.0 17.2 33 11.8 CALM 0 7 0 4 1005.4 - 0.0
26/04:30pm 35.9 38.3 17.1 32 12.1 CALM 0 9 0 5 1005.5 - 0.0
26/04:00pm 35.6 38.7 18.7 37 11.1 CALM 0 0 0 0 1005.4 - 0.0
26/03:30pm 35.2 37.8 18.3 36 11.1 NE 2 15 1 8 1005.5 - 0.0
26/03:00pm 35.1 37.8 18.6 37 10.9 ESE 2 15 1 8 1006.0 1004.9 0.0
26/02:30pm 34.0 38.6 21.8 49 8.3 CALM 0 6 0 3 1006.3 - 0.0
26/02:00pm 34.6 38.9 22.6 49 8.3 E 4 26 2 14 1006.8 - 0.0
26/01:30pm 34.5 38.2 20.8 44 9.3 ENE 2 17 1 9 1007.4 - 0.0
26/01:00pm 33.3 38.4 22.7 53 7.3 CALM 0 6 0 3 1007.9 - 0.0
26/12:30pm 31.9 37.1 22.9 59 6.2 CALM 0 0 0 0 1008.5 - 0.0
26/12:00pm 30.9 36.6 23.8 66 5.0 CALM 0 9 0 5 1009.2 1008.1 0.0
26/11:30am 29.9 35.3 23.3 67 4.6 CALM 0 2 0 1 1009.7 - 0.0
26/11:00am 29.4 34.6 22.9 68 4.5 CALM 0 0 0 0 1010.1 - 0.0
26/10:30am 29.0 34.3 23.0 70 4.1 CALM 0 0 0 0 1010.5 - 0.0
26/10:00am 28.7 34.2 23.4 73 3.7 CALM 0 4 0 2 1010.6 - 0.0
26/09:30am 28.3 33.5 22.8 72 3.8 CALM 0 9 0 5 1010.8 - 0.0
26/09:00am 27.0 32.3 23.0 79 2.7 CALM 0 - 0 - - 1009.7 15.0
26/08:57am 26.9 32.1 22.9 79 2.7 CALM 0 4 0 2 1010.7 - 15.4
26/08:30am 26.4 31.8 23.3 83 2.1 CALM 0 0 0 0 1010.8 - 15.4
26/08:15am 25.8 31.1 23.1 85 1.8 CALM 0 0 0 0 1010.6 - 15.4
26/08:00am 25.5 29.5 23.7 90 1.2 SSE 9 11 5 6 1010.4 - 15.4
26/07:30am 24.6 30.0 23.2 92 1.0 CALM 0 2 0 1 1009.9 - 15.4
26/07:00am 24.3 29.5 22.9 92 0.9 CALM 0 0 0 0 1009.8 - 15.4
26/06:30am 24.0 29.2 22.8 93 0.8 CALM 0 2 0 1 1009.5 - 15.4
26/06:00am 23.9 29.0 22.7 93 0.8 CALM 0 0 0 0 1009.0 1007.9 15.4
26/05:30am 23.9 29.0 22.7 93 0.8 CALM 0 0 0 0 1008.2 - 15.4
26/05:00am 23.8 28.2 22.8 94 0.7 S 4 17 2 9 1007.6 - 15.4
26/04:30am 23.7 28.9 22.9 95 0.5 CALM 0 13 0 7 1007.3 - 15.4
26/04:00am 23.7 28.9 22.9 95 0.5 CALM 0 0 0 0 1007.0 - 15.4
26/03:30am 23.8 29.0 22.9 95 0.6 CALM 0 0 0 0 1007.1 - 15.4
26/03:00am 23.7 28.9 22.9 95 0.5 CALM 0 0 0 0 1007.4 1006.4 15.4
26/02:30am 23.8 29.0 22.8 94 0.7 CALM 0 0 0 0 1007.5 - 15.4
26/02:00am 24.0 29.1 22.6 92 0.9 CALM 0 0 0 0 1007.8 - 15.4
26/01:30am 23.7 28.6 22.3 92 0.9 CALM 0 0 0 0 1008.1 - 15.4
26/01:00am 23.7 28.8 22.7 94 0.7 CALM 0 0 0 0 1008.7 - 15.2
26/12:31am 23.7 28.7 22.5 93 0.8 CALM 0 0 0 0 1009.6 - 15.0
26/12:30am 23.6 28.5 22.4 93 0.8 CALM 0 0 0 0 1009.6 - 15.0
26/12:00am 23.8 29.0 22.8 94 0.7 CALM 0 0 0 0 1010.5 1009.4 13.0
 
Date/Time
CST
Temp
°C
App
Temp
°C
Dew
Point
Rel
Hum
%
Delta-T
°C
Wind Press
QNH
hPa
Press
MSL
hPa
Rain
since 9 am
mm
Dir
 
Spd
km/h
Gust
km/h
Spd
kts
Gust
kts
25/11:54pm 23.7 28.8 22.7 94 0.7 CALM 0 0 0 0 1010.6 - 12.6
25/11:30pm 23.6 28.7 22.6 94 0.7 CALM 0 13 0 7 1011.0 - 11.8
25/11:00pm 23.6 28.2 22.4 93 0.8 NW 2 15 1 8 1011.0 - 11.0
25/10:44pm 23.8 27.7 22.6 93 0.8 NW 6 19 3 10 1010.8 - 10.6
25/10:30pm 24.3 28.8 22.9 92 0.9 NNW 4 15 2 8 1010.9 - 10.2
25/10:03pm 24.9 30.3 23.3 91 1.1 CALM 0 13 0 7 1011.6 - 6.0
25/10:00pm 25.0 30.4 23.2 90 1.2 CALM 0 13 0 7 1011.5 - 4.2
25/09:30pm 25.0 30.5 23.4 91 1.1 CALM 0 11 0 6 1011.0 - 2.0
25/09:00pm 24.8 30.1 23.0 90 1.2 CALM 0 0 0 0 1009.6 1008.5 1.6
25/08:30pm 24.7 29.9 22.9 90 1.2 CALM 0 13 0 7 1009.0 - 1.6
25/08:00pm 24.6 29.6 22.5 88 1.4 CALM 0 0 0 0 1008.6 - 1.6
25/07:30pm 24.5 29.3 22.2 87 1.5 CALM 0 0 0 0 1008.0 - 1.6
25/07:00pm 24.9 29.8 22.4 86 1.7 CALM 0 2 0 1 1007.8 - 1.6
25/06:30pm 24.9 29.1 23.1 90 1.2 S 6 13 3 7 1007.1 - 1.6
25/06:00pm 24.6 29.6 23.2 92 1.0 SW 2 19 1 10 1006.6 1005.6 1.6
25/05:30pm 25.0 26.2 23.2 90 1.2 SSW 22 30 12 16 1007.3 - 1.4
25/05:14pm 25.5 27.8 23.4 88 1.4 S 17 33 9 18 1007.5 - 1.2
25/05:00pm 27.1 31.6 24.0 83 2.1 NW 7 37 4 20 1006.9 - 1.0
25/04:55pm 27.6 32.3 24.0 81 2.5 NNE 6 19 3 10 1006.6 - 0.6
25/04:30pm 30.0 33.1 22.2 63 5.3 E 9 22 5 12 1006.1 - 0.0
25/04:00pm 31.4 36.0 22.4 59 6.2 NNW 2 15 1 8 1005.7 - 0.0
25/03:25pm 32.4 36.2 21.0 51 7.7 N 2 13 1 7 1005.6 - 0.0
25/03:00pm 33.3 37.2 21.8 51 7.9 N 4 17 2 9 1005.5 1004.4 0.0
25/02:30pm 35.4 39.0 20.5 41 10.1 N 2 17 1 9 1005.6 - 0.0
25/02:00pm 35.3 39.8 21.6 45 9.4 CALM 0 7 0 4 1006.7 - 0.0
25/01:30pm 34.1 38.4 21.2 47 8.8 CALM 0 0 0 0 1007.3 - 0.0

Other Formats:

Comma delimited format used in spreadsheet applications
http://www.bom.gov.au/fwo/IDD60801/IDD60801.94131.axf

JavaScript Object Notation format (JSON) in row-major order
http://www.bom.gov.au/fwo/IDD60801/IDD60801.94131.json